createdAt,value
2024-02-08T00:01:47.322Z,2.65
2024-02-08T00:04:36.469Z,3.03
2024-02-08T00:07:24.009Z,3.00
2024-02-08T00:10:11.701Z,2.53
2024-02-08T00:12:59.250Z,2.90
2024-02-08T00:15:47.434Z,2.80
2024-02-08T00:18:37.525Z,2.67
2024-02-08T00:21:25.247Z,3.03
2024-02-08T00:24:12.858Z,2.75
2024-02-08T00:27:00.499Z,2.60
2024-02-08T00:29:48.237Z,2.67
2024-02-08T00:32:35.770Z,2.65
2024-02-08T00:35:24.531Z,2.67
2024-02-08T00:38:12.246Z,2.58
2024-02-08T00:40:59.931Z,2.47
2024-02-08T00:43:47.530Z,2.58
2024-02-08T00:46:35.039Z,2.65
2024-02-08T00:49:22.657Z,2.67
2024-02-08T00:52:10.666Z,2.13
2024-02-08T00:54:58.174Z,2.10
2024-02-08T00:57:45.976Z,2.58
2024-02-08T01:00:39.249Z,2.15
2024-02-08T01:03:27.110Z,2.22
2024-02-08T01:06:14.708Z,2.33
2024-02-08T01:09:02.297Z,2.45
2024-02-08T01:11:49.795Z,2.22
2024-02-08T01:14:38.679Z,2.30
2024-02-08T01:17:26.345Z,2.30
2024-02-08T01:20:22.801Z,2.65
2024-02-08T01:23:11.034Z,2.45
2024-02-08T01:25:58.659Z,2.42
2024-02-08T01:28:46.199Z,2.15
2024-02-08T01:31:38.491Z,2.25
2024-02-08T01:34:30.436Z,2.25
2024-02-08T01:37:18.786Z,2.13
2024-02-08T01:40:18.065Z,2.03
2024-02-08T01:43:07.509Z,2.50
2024-02-08T01:45:55.593Z,1.85
2024-02-08T01:48:46.082Z,2.17
2024-02-08T01:51:33.893Z,2.47
2024-02-08T01:54:21.506Z,2.30
2024-02-08T01:57:10.067Z,2.42
2024-02-08T01:59:57.872Z,2.35
2024-02-08T02:02:55.091Z,2.47
2024-02-08T02:05:47.960Z,2.00
2024-02-08T02:08:35.927Z,2.20
2024-02-08T02:11:49.188Z,2.40
2024-02-08T02:14:40.194Z,2.13
2024-02-08T02:17:28.064Z,2.00
2024-02-08T02:20:20.058Z,1.90
2024-02-08T02:23:10.822Z,2.47
2024-02-08T02:26:00.251Z,2.67
2024-02-08T02:28:49.091Z,2.17
2024-02-08T02:31:38.358Z,2.20
2024-02-08T02:34:27.168Z,2.50
2024-02-08T02:37:15.934Z,2.03
2024-02-08T02:40:03.734Z,2.20
2024-02-08T02:42:57.516Z,2.53
2024-02-08T02:45:45.142Z,2.15
2024-02-08T02:48:36.442Z,2.20
2024-02-08T02:51:27.670Z,1.95
2024-02-08T02:54:16.862Z,2.53
2024-02-08T02:57:04.649Z,2.03
2024-02-08T02:59:52.270Z,1.85
2024-02-08T03:02:39.770Z,2.35
2024-02-08T03:05:27.295Z,2.60
2024-02-08T03:08:17.847Z,2.10
2024-02-08T03:11:07.116Z,1.90
2024-02-08T03:13:56.588Z,2.17
2024-02-08T03:16:44.275Z,1.98
2024-02-08T03:19:37.189Z,2.17
2024-02-08T03:22:27.234Z,2.25
2024-02-08T03:25:17.929Z,2.13
2024-02-08T03:28:07.557Z,2.28
2024-02-08T03:30:57.234Z,2.67
2024-02-08T03:33:45.609Z,2.05
2024-02-08T03:36:33.344Z,2.15
2024-02-08T03:39:29.749Z,1.95
2024-02-08T03:42:18.193Z,2.17
2024-02-08T03:45:08.145Z,2.20
2024-02-08T03:48:05.713Z,1.80
2024-02-08T03:50:53.371Z,2.08
2024-02-08T03:53:41.792Z,1.90
2024-02-08T03:56:38.101Z,2.28
2024-02-08T03:59:27.672Z,1.77
2024-02-08T04:02:16.257Z,2.28
2024-02-08T04:05:07.575Z,3.42
2024-02-08T04:08:00.558Z,2.25
2024-02-08T04:10:48.341Z,1.90
2024-02-08T04:13:55.445Z,2.17
2024-02-08T04:17:01.752Z,2.33
2024-02-08T04:20:08.146Z,2.08
2024-02-08T04:23:14.520Z,1.80
2024-02-08T04:26:25.781Z,2.20
2024-02-08T04:29:32.012Z,2.40
2024-02-08T04:32:38.362Z,2.20
2024-02-08T04:35:44.850Z,2.45
2024-02-08T04:38:50.837Z,1.92
2024-02-08T04:42:00.790Z,1.83
2024-02-08T04:45:07.106Z,1.75
2024-02-08T04:48:13.487Z,1.98
2024-02-08T04:51:19.704Z,1.80
2024-02-08T04:54:10.891Z,2.30
2024-02-08T04:57:00.797Z,2.33
2024-02-08T04:59:52.237Z,1.80
2024-02-08T05:02:41.912Z,2.20
2024-02-08T05:05:29.625Z,2.25
2024-02-08T05:08:17.431Z,1.92
2024-02-08T05:11:11.027Z,2.05
2024-02-08T05:14:02.787Z,1.90
2024-02-08T05:16:55.907Z,1.65
2024-02-08T05:19:45.957Z,2.53
2024-02-08T05:22:34.163Z,1.83
2024-02-08T05:25:25.558Z,1.70
2024-02-08T05:28:14.244Z,1.80
2024-02-08T05:31:02.261Z,1.75
2024-02-08T05:33:53.296Z,2.00
2024-02-08T05:36:41.055Z,2.40
2024-02-08T05:39:29.700Z,2.30
2024-02-08T05:42:18.851Z,1.95
2024-02-08T05:45:21.775Z,2.65
2024-02-08T05:48:09.523Z,2.70
2024-02-08T05:51:03.395Z,2.45
2024-02-08T05:53:53.091Z,2.83
2024-02-08T05:56:40.919Z,3.05
2024-02-08T05:59:30.542Z,3.28
2024-02-08T06:02:25.944Z,2.60
2024-02-08T06:05:19.366Z,2.25
2024-02-08T06:08:21.271Z,2.22
2024-02-08T06:11:18.050Z,2.58
2024-02-08T06:14:18.927Z,3.00
2024-02-08T06:17:10.167Z,3.10
2024-02-08T06:19:57.703Z,2.10
2024-02-08T06:22:45.403Z,2.53
2024-02-08T06:25:37.670Z,2.25
2024-02-08T06:28:27.901Z,2.60
2024-02-08T06:31:21.489Z,2.20
2024-02-08T06:34:29.451Z,2.30
2024-02-08T06:40:36.605Z,2.80
2024-02-08T06:43:24.213Z,2.30
2024-02-08T06:46:18.987Z,3.10
2024-02-08T06:49:39.801Z,3.33
2024-02-08T06:52:46.055Z,2.40
2024-02-08T06:55:52.335Z,2.30
2024-02-08T06:59:01.173Z,2.90
2024-02-08T07:02:07.436Z,3.75
2024-02-08T07:05:13.882Z,3.20
2024-02-08T07:08:22.099Z,3.35
2024-02-08T07:11:33.813Z,4.53
2024-02-08T07:14:40.028Z,3.63
2024-02-08T07:17:46.298Z,4.22
2024-02-08T07:20:52.621Z,4.13
2024-02-08T07:23:58.657Z,4.18
2024-02-08T07:27:04.823Z,4.32
2024-02-08T07:30:11.137Z,4.68
2024-02-08T07:33:17.672Z,4.97
2024-02-08T07:36:24.542Z,3.92
2024-02-08T07:39:30.960Z,4.53
2024-02-08T07:42:30.440Z,4.13
2024-02-08T07:45:18.396Z,4.32
2024-02-08T07:48:14.527Z,4.18
2024-02-08T07:51:05.342Z,5.03
2024-02-08T07:53:55.383Z,5.35
2024-02-08T07:56:49.182Z,4.85
2024-02-08T07:59:36.694Z,5.03
2024-02-08T08:02:25.257Z,4.68
2024-02-08T08:05:16.554Z,5.10
2024-02-08T08:08:12.475Z,5.50
2024-02-08T08:11:04.771Z,4.97
2024-02-08T08:13:56.466Z,5.28
2024-02-08T08:17:03.893Z,4.93
2024-02-08T08:19:52.401Z,5.00
2024-02-08T08:22:40.213Z,4.90
2024-02-08T08:25:52.737Z,4.90
2024-02-08T08:28:46.860Z,4.70
2024-02-08T08:31:38.927Z,4.72
2024-02-08T08:34:36.871Z,4.50
2024-02-08T08:37:43.341Z,4.90
2024-02-08T08:40:41.109Z,4.55
2024-02-08T08:43:32.929Z,4.82
2024-02-08T08:46:22.414Z,5.55
2024-02-08T08:49:15.601Z,4.88
2024-02-08T08:52:05.798Z,4.47
2024-02-08T08:55:12.933Z,4.55
2024-02-08T08:58:04.947Z,4.40
2024-02-08T09:01:05.603Z,4.97
2024-02-08T09:04:24.021Z,4.90
2024-02-08T09:07:12.759Z,4.05
2024-02-08T09:10:04.894Z,3.97
2024-02-08T09:13:03.723Z,4.95
2024-02-08T09:16:17.511Z,4.65
2024-02-08T09:19:05.860Z,5.13
2024-02-08T09:21:54.325Z,4.53
2024-02-08T09:24:45.823Z,4.63
2024-02-08T09:27:36.103Z,4.40
2024-02-08T09:30:40.226Z,4.30
2024-02-08T09:33:47.032Z,4.55
2024-02-08T09:36:35.831Z,4.38
2024-02-08T09:39:46.254Z,5.10
2024-02-08T09:42:39.958Z,3.97
2024-02-08T09:45:35.787Z,4.82
2024-02-08T09:48:38.252Z,5.65
2024-02-08T09:51:28.095Z,5.40
2024-02-08T09:54:26.258Z,4.80
2024-02-08T09:57:37.950Z,5.32
2024-02-08T10:00:55.713Z,4.32
2024-02-08T10:03:46.209Z,3.80
2024-02-08T10:06:57.699Z,4.90
2024-02-08T10:09:48.998Z,4.35
2024-02-08T10:12:52.291Z,3.10
2024-02-08T10:15:40.900Z,4.68
2024-02-08T10:18:39.576Z,3.97
2024-02-08T10:21:30.237Z,4.68
2024-02-08T10:24:28.436Z,3.90
2024-02-08T10:27:23.148Z,3.95
2024-02-08T10:30:12.243Z,3.65
2024-02-08T10:33:05.869Z,3.88
2024-02-08T10:36:11.865Z,4.57
2024-02-08T10:39:08.945Z,4.15
2024-02-08T10:42:00.440Z,4.53
2024-02-08T10:44:53.251Z,3.45
2024-02-08T10:47:42.736Z,3.88
2024-02-08T10:50:36.188Z,3.65
2024-02-08T10:53:44.474Z,5.10
2024-02-08T10:56:46.342Z,4.53
2024-02-08T10:59:49.315Z,18.38
2024-02-08T11:02:42.161Z,72.72
2024-02-08T11:05:30.877Z,84.53
2024-02-08T11:08:26.247Z,80.85
2024-02-08T11:11:22.058Z,82.93
2024-02-08T11:14:10.316Z,89.00
2024-02-08T11:17:05.622Z,90.43
2024-02-08T11:19:59.750Z,87.13
2024-02-08T11:22:58.555Z,77.55
2024-02-08T11:25:46.811Z,71.18
2024-02-08T11:28:46.011Z,73.07
2024-02-08T11:31:43.210Z,67.85
2024-02-08T11:34:46.322Z,72.38
2024-02-08T11:37:39.751Z,71.90
2024-02-08T11:40:30.819Z,66.32
2024-02-08T11:43:25.350Z,62.38
2024-02-08T11:46:20.206Z,69.07
2024-02-08T11:49:16.481Z,59.17
2024-02-08T11:52:08.914Z,59.83
2024-02-08T11:55:10.313Z,58.55
2024-02-08T11:57:58.808Z,57.10
2024-02-08T12:00:50.623Z,54.00
2024-02-08T12:03:45.267Z,53.17
2024-02-08T12:06:35.776Z,60.05
2024-02-08T12:09:31.445Z,54.30
2024-02-08T12:12:20.556Z,53.63
2024-02-08T12:15:10.781Z,54.90
2024-02-08T12:18:07.727Z,52.53
2024-02-08T12:21:03.425Z,48.55
2024-02-08T12:23:55.832Z,47.53
2024-02-08T12:26:46.605Z,47.42
2024-02-08T12:29:39.969Z,48.00
2024-02-08T12:32:32.083Z,44.38
2024-02-08T12:35:29.290Z,42.40
2024-02-08T12:38:18.955Z,41.78
2024-02-08T12:41:07.737Z,38.65
2024-02-08T12:43:56.259Z,41.17
2024-02-08T12:46:49.023Z,36.63
2024-02-08T12:49:47.601Z,37.67
2024-02-08T12:52:42.190Z,32.80
2024-02-08T12:55:35.316Z,31.83
2024-02-08T12:58:25.341Z,30.25
2024-02-08T13:01:20.033Z,28.73
2024-02-08T13:04:08.170Z,29.73
2024-02-08T13:06:56.793Z,28.88
2024-02-08T13:09:46.494Z,26.30
2024-02-08T13:12:34.216Z,27.90
2024-02-08T13:15:23.200Z,28.75
2024-02-08T13:18:13.220Z,27.52
2024-02-08T13:21:05.195Z,30.08
2024-02-08T13:23:53.205Z,30.92
2024-02-08T13:26:40.780Z,26.65
2024-02-08T13:29:28.289Z,25.50
2024-02-08T13:32:17.341Z,25.50
2024-02-08T13:35:05.459Z,76.88
2024-02-08T13:37:55.762Z,52.92
2024-02-08T13:40:44.865Z,46.60
2024-02-08T13:43:34.273Z,45.25
2024-02-08T13:46:23.162Z,42.67
2024-02-08T13:49:10.943Z,40.45
2024-02-08T13:51:58.506Z,39.75
2024-02-08T13:54:49.543Z,33.38
2024-02-08T14:23:50.190Z,24.90
2024-02-08T14:26:44.108Z,24.67
2024-02-08T14:29:38.875Z,25.40
2024-02-08T14:32:32.406Z,25.38
2024-02-08T14:35:26.854Z,22.42
2024-02-08T14:38:15.665Z,25.55
2024-02-08T14:41:06.466Z,23.48
2024-02-08T14:44:07.433Z,24.60
2024-02-08T14:46:58.144Z,22.88
2024-02-08T14:50:02.471Z,23.05
2024-02-08T14:52:51.087Z,23.20
2024-02-08T14:55:46.302Z,21.80
2024-02-08T14:58:34.346Z,22.45
2024-02-08T15:01:41.299Z,21.85
2024-02-08T15:04:32.277Z,20.58
2024-02-08T15:07:40.249Z,23.58
2024-02-08T15:10:44.493Z,20.45
2024-02-08T15:13:48.050Z,19.13
2024-02-08T15:16:36.184Z,20.92
2024-02-08T15:19:27.698Z,20.35
2024-02-08T15:22:41.183Z,19.73
2024-02-08T15:25:36.211Z,19.45
2024-02-08T15:28:44.410Z,17.98
2024-02-08T15:31:48.827Z,19.13
2024-02-08T15:34:56.638Z,18.20
2024-02-08T15:37:44.647Z,17.80
2024-02-08T15:40:32.748Z,16.45
2024-02-08T15:43:20.466Z,17.73
2024-02-08T15:46:12.105Z,18.23
2024-02-08T15:49:01.407Z,16.70
2024-02-08T15:51:51.030Z,17.05
2024-02-08T15:54:39.692Z,17.33
2024-02-08T15:57:39.471Z,16.20
2024-02-08T16:00:56.538Z,16.52
2024-02-08T16:03:58.397Z,16.98
2024-02-08T16:06:55.447Z,14.77
2024-02-08T16:09:51.308Z,15.82
2024-02-08T16:12:39.265Z,15.88
2024-02-08T16:15:29.021Z,13.73
2024-02-08T16:18:26.147Z,15.27
2024-02-08T16:21:26.554Z,15.65
2024-02-08T16:24:14.966Z,14.88
2024-02-08T16:27:08.581Z,14.40
2024-02-08T16:30:09.757Z,14.65
2024-02-08T16:33:09.596Z,14.63
2024-02-08T16:36:10.539Z,12.18
2024-02-08T16:39:23.063Z,13.88
2024-02-08T16:42:19.436Z,12.52
2024-02-08T16:45:19.104Z,13.02
2024-02-08T16:48:15.604Z,13.05
2024-02-08T16:51:11.550Z,12.27
2024-02-08T16:54:18.791Z,11.88
2024-02-08T16:57:08.946Z,11.90
2024-02-08T17:00:20.089Z,13.52
2024-02-08T17:03:30.802Z,12.10
2024-02-08T17:06:29.373Z,12.27
2024-02-08T17:09:17.431Z,12.15
2024-02-08T17:12:10.141Z,11.60
2024-02-08T17:15:19.177Z,11.38
2024-02-08T17:18:07.695Z,11.93
2024-02-08T17:21:30.180Z,11.07
2024-02-08T17:24:37.031Z,10.85
2024-02-08T17:27:50.375Z,11.68
2024-02-08T17:30:58.979Z,12.10
2024-02-08T17:33:51.173Z,11.38
2024-02-08T17:36:45.281Z,11.35
2024-02-08T17:39:41.757Z,10.05
2024-02-08T17:42:31.939Z,10.85
2024-02-08T17:45:21.472Z,11.13
2024-02-08T17:48:14.417Z,10.30
2024-02-08T17:51:08.638Z,8.80
2024-02-08T17:54:01.621Z,9.18
2024-02-08T17:56:49.769Z,9.13
2024-02-08T17:59:44.839Z,9.52
2024-02-08T18:02:34.351Z,9.73
2024-02-08T18:05:28.733Z,8.68
2024-02-08T18:08:20.509Z,9.25
2024-02-08T18:11:11.093Z,8.93
2024-02-08T18:14:00.014Z,9.10
2024-02-08T18:16:47.688Z,7.75
2024-02-08T18:19:38.324Z,8.60
2024-02-08T18:22:32.841Z,8.45
2024-02-08T18:25:30.392Z,8.57
2024-02-08T18:31:09.399Z,6.35
2024-02-08T18:33:58.473Z,7.78
2024-02-08T18:36:47.404Z,8.05
2024-02-08T18:39:39.507Z,7.78
2024-02-08T18:42:28.666Z,8.10
2024-02-08T18:45:18.548Z,8.15
2024-02-08T18:48:12.199Z,7.65
2024-02-08T18:51:04.347Z,6.93
2024-02-08T18:53:53.838Z,6.13
2024-02-08T18:56:43.058Z,7.65
2024-02-08T18:59:36.649Z,6.70
2024-02-08T19:02:28.183Z,7.30
2024-02-08T19:05:17.645Z,6.82
2024-02-08T19:08:08.762Z,7.72
2024-02-08T19:11:00.025Z,6.65
2024-02-08T19:13:48.481Z,6.25
2024-02-08T19:16:43.769Z,7.78
2024-02-08T19:19:35.070Z,6.55
2024-02-08T19:22:24.613Z,6.70
2024-02-08T19:25:15.582Z,5.88
2024-02-08T19:28:07.863Z,7.00
2024-02-08T19:31:00.148Z,5.93
2024-02-08T19:33:52.458Z,6.65
2024-02-08T19:36:54.178Z,6.60
2024-02-08T19:39:42.772Z,6.95
2024-02-08T19:42:32.408Z,5.82
2024-02-08T19:45:32.167Z,6.75
2024-02-08T19:48:20.208Z,5.82
2024-02-08T19:51:10.486Z,6.35
2024-02-08T19:54:09.300Z,5.75
2024-02-08T19:57:04.129Z,5.82
2024-02-08T19:59:54.797Z,5.20
2024-02-08T20:02:44.589Z,6.07
2024-02-08T20:05:32.837Z,5.15
2024-02-08T20:08:23.932Z,5.65
2024-02-08T20:11:13.036Z,5.15
2024-02-08T20:14:01.313Z,5.53
2024-02-08T20:16:55.228Z,5.65
2024-02-08T20:19:45.030Z,4.95
2024-02-08T20:22:32.768Z,5.18
2024-02-08T20:25:28.734Z,6.20
2024-02-08T20:28:17.756Z,5.18
2024-02-08T20:31:08.799Z,5.05
2024-02-08T20:33:57.491Z,4.50
2024-02-08T20:36:46.492Z,4.80
2024-02-08T20:39:37.202Z,5.53
2024-02-08T20:42:25.135Z,4.82
2024-02-08T20:45:12.805Z,4.82
2024-02-08T20:48:09.092Z,4.70
2024-02-08T20:51:00.613Z,4.72
2024-02-08T20:53:48.325Z,5.10
2024-02-08T20:56:39.415Z,4.43
2024-02-08T20:59:29.012Z,4.47
2024-02-08T21:02:16.917Z,4.75
2024-02-08T21:05:06.946Z,4.75
2024-02-08T21:07:54.718Z,4.43
2024-02-08T21:10:42.452Z,4.28
2024-02-08T21:13:31.176Z,4.70
2024-02-08T21:16:20.993Z,4.28
2024-02-08T21:19:11.613Z,4.18
2024-02-08T21:21:59.330Z,4.40
2024-02-08T21:24:47.264Z,4.90
2024-02-08T21:27:35.163Z,4.80
2024-02-08T21:30:22.759Z,4.63
2024-02-08T21:33:11.765Z,3.88
2024-02-08T21:36:05.137Z,3.58
2024-02-08T21:38:53.580Z,4.15
2024-02-08T21:41:42.800Z,4.13
2024-02-08T21:44:31.730Z,4.25
2024-02-08T21:47:19.887Z,4.03
2024-02-08T21:50:09.432Z,3.97
2024-02-08T21:52:57.143Z,4.45
2024-02-08T21:55:45.143Z,4.15
2024-02-08T21:58:32.784Z,4.50
2024-02-08T22:01:36.911Z,3.65
2024-02-08T22:04:25.662Z,4.65
2024-02-08T22:07:14.124Z,4.07
2024-02-08T22:10:01.937Z,3.35
2024-02-08T22:12:49.651Z,4.88
2024-02-08T22:15:38.711Z,4.97
2024-02-08T22:18:26.528Z,4.30
2024-02-08T22:21:18.434Z,3.30
2024-02-08T22:24:06.672Z,4.20
2024-02-08T22:26:54.272Z,3.90
2024-02-08T22:29:41.860Z,4.45
2024-02-08T22:32:29.934Z,3.85
2024-02-08T22:35:17.821Z,3.72
2024-02-08T22:38:09.111Z,3.35
2024-02-08T22:40:59.321Z,3.38
2024-02-08T22:43:47.031Z,3.33
2024-02-08T22:46:36.536Z,2.88
2024-02-08T22:49:26.490Z,3.60
2024-02-08T22:52:14.358Z,3.47
2024-02-08T22:55:02.048Z,3.03
2024-02-08T22:58:01.540Z,3.47
2024-02-08T23:00:50.076Z,2.92
2024-02-08T23:03:38.210Z,3.90
2024-02-08T23:06:31.562Z,3.05
2024-02-08T23:09:21.227Z,3.95
2024-02-08T23:12:11.929Z,3.08
2024-02-08T23:14:59.580Z,3.38
2024-02-08T23:17:55.989Z,3.22
2024-02-08T23:20:51.817Z,3.30
2024-02-08T23:23:39.858Z,3.05
2024-02-08T23:26:27.389Z,3.60
2024-02-08T23:29:17.014Z,4.20
2024-02-08T23:32:05.491Z,3.13
2024-02-08T23:34:53.740Z,3.50
2024-02-08T23:37:41.852Z,3.22
2024-02-08T23:40:29.881Z,3.47
2024-02-08T23:43:35.044Z,3.00
2024-02-08T23:46:32.868Z,3.42
2024-02-08T23:49:23.162Z,3.10
2024-02-08T23:52:13.742Z,4.30
2024-02-08T23:55:02.451Z,3.42
2024-02-08T23:57:50.167Z,2.58
